Moonlight II — 9HFR8 — position and weather

sailwx.info

Track history (hours):
 
Tides and Currents Weather Stations Pressure Air Temp Water Temp Dewpoint Dewpoint Depression Visibility Wind Speed Wind Dir Waves Ship Positions

Moonlight II

Last reported at 2014-Jul-22 06:31 UTC. Time now 2014-Jul-22 07:23 UTC.
Position N 40°45' E 013°53'.

Length 82 m; draft 4.1 m.

Type: Ship. MMSI: 215934000.

Date/timePositionNaut miles runAvg speedWind from/ knotsBaromVisibWave heightAir tempDewpointWater temp
2014-Jul-22 06:31N 40°45' E 013°53'0 0.0
2014-Jul-22 05:31N 40°45' E 013°53'0 0.0
2014-Jul-22 04:31N 40°45' E 013°53'0 0.0
2014-Jul-22 03:31N 40°45' E 013°53'0 0.0
2014-Jul-22 02:31N 40°45' E 013°53'0 0.0
2014-Jul-22 01:31N 40°45' E 013°53'0 0.0
2014-Jul-22 00:31N 40°45' E 013°53'0 0.0
2014-Jul-21 23:31N 40°45' E 013°53'0 0.0
2014-Jul-21 22:31N 40°45' E 013°53'0 0.0
2014-Jul-21 21:28N 40°45' E 013°53'0 0.0
2014-Jul-21 20:31N 40°45' E 013°53'0 0.0
2014-Jul-21 20:16N 40°45' E 013°53'0 0.0
2014-Jul-21 19:31N 40°45' E 013°53'0 0.0
2014-Jul-21 18:31N 40°45' E 013°53'0 0.0
2014-Jul-21 17:31N 40°45' E 013°53'0 0.0
2014-Jul-21 16:31N 40°45' E 013°53'0 0.0
2014-Jul-21 15:31N 40°45' E 013°53'0 0.0
2014-Jul-21 14:31N 40°45' E 013°53'0 0.0
2014-Jul-21 13:31N 40°45' E 013°53'0 0.0
2014-Jul-21 12:31N 40°45' E 013°53'2 2.1
2014-Jul-21 11:33N 40°46' E 013°56'1111.1
2014-Jul-21 10:33N 40°46' E 014°11'5 0.3
2014-Jul-20 18:25N 40°50' E 014°15'0 0.0
2014-Jul-20 17:31N 40°50' E 014°15'0 0.0
2014-Jul-20 16:28N 40°50' E 014°15'0 0.0
2014-Jul-20 15:28N 40°50' E 014°15'0 0.0
2014-Jul-20 14:31N 40°50' E 014°15'0 0.0
2014-Jul-20 13:31N 40°50' E 014°15'0 0.0
2014-Jul-20 12:28N 40°50' E 014°15'0 0.0
2014-Jul-20 11:28N 40°50' E 014°15'0 0.0
2014-Jul-20 07:04N 40°50' E 014°15'0 0.0
2014-Jul-19 18:31N 40°50' E 014°15'0 0.0
2014-Jul-19 12:16N 40°50' E 014°15'1 0.1
2014-Jul-19 06:06N 40°50' E 014°17'4 7.7
2014-Jul-19 05:33N 40°46' E 014°17'1212.2
2014-Jul-19 04:33N 40°34' E 014°19'2 0.2
2014-Jul-18 15:29N 40°34' E 014°22'3 3.6
2014-Jul-18 14:34N 40°36' E 014°18'10 9.5
2014-Jul-18 13:28N 40°44' E 014°27'0 0.0
2014-Jul-18 12:22N 40°44' E 014°27'0 0.0
2014-Jul-18 11:28N 40°44' E 014°27'0 0.0
2014-Jul-18 10:31N 40°44' E 014°27'0 0.0
2014-Jul-18 09:28N 40°44' E 014°27'0 0.0
2014-Jul-18 08:31N 40°44' E 014°27'0 0.1
2014-Jul-18 06:32N 40°44' E 014°27'1010.3
2014-Jul-18 05:33N 40°37' E 014°18'4 4.0
2014-Jul-18 04:31N 40°33' E 014°15'0 0.0
2014-Jul-18 03:31N 40°33' E 014°15'0 0.0
2014-Jul-18 02:31N 40°33' E 014°15'0 0.0
2014-Jul-18 01:31N 40°33' E 014°15'0 0.0
2014-Jul-18 00:31N 40°33' E 014°15'0 0.0
2014-Jul-17 23:31N 40°33' E 014°15'0 0.0
2014-Jul-17 22:31N 40°33' E 014°15'0 0.0
2014-Jul-17 21:31N 40°33' E 014°15'0 0.0
2014-Jul-17 20:31N 40°33' E 014°15'0 0.0
2014-Jul-17 19:31N 40°33' E 014°15'0 0.0
2014-Jul-17 18:31N 40°33' E 014°15'0 0.0
2014-Jul-17 17:33N 40°33' E 014°15'0 0.3
2014-Jul-17 16:31N 40°34' E 014°15'0 0.0
2014-Jul-17 15:28N 40°34' E 014°15'0 0.0
2014-Jul-17 14:28N 40°34' E 014°15'0 0.0
2014-Jul-17 13:28N 40°34' E 014°15'0 0.0
2014-Jul-17 12:31N 40°34' E 014°15'0 0.0
2014-Jul-17 11:13N 40°34' E 014°15'0 0.1
2014-Jul-17 10:19N 40°34' E 014°15'0 0.1
2014-Jul-17 09:31N 40°34' E 014°15'0 0.0
2014-Jul-17 08:31N 40°34' E 014°15'0 0.0
2014-Jul-17 07:28N 40°34' E 014°15'0 0.0
2014-Jul-17 06:28N 40°34' E 014°15'0 0.0
2014-Jul-17 05:22N 40°34' E 014°15'0 0.4
2014-Jul-17 04:33N 40°33' E 014°15'0 0.0
2014-Jul-17 03:34N 40°33' E 014°15'0 0.0
2014-Jul-17 02:34N 40°33' E 014°15'0 0.0
2014-Jul-17 01:33N 40°33' E 014°15'0 0.0
2014-Jul-17 00:33N 40°33' E 014°15'0 0.0
2014-Jul-16 23:34N 40°33' E 014°15'0 0.0
2014-Jul-16 22:33N 40°33' E 014°15'0 0.0
2014-Jul-16 21:34N 40°33' E 014°15'0 0.0
2014-Jul-16 20:34N 40°33' E 014°15'0 0.0
2014-Jul-16 19:33N 40°33' E 014°15'0 0.0
2014-Jul-16 18:34N 40°33' E 014°15'0 0.0
2014-Jul-16 17:33N 40°33' E 014°15'5 5.0
2014-Jul-16 16:33N 40°37' E 014°10'1313.0
2014-Jul-16 15:34N 40°45' E 013°57'3 2.6
2014-Jul-16 14:32N 40°45' E 013°53'0 0.0
2014-Jul-16 13:32N 40°45' E 013°53'0 0.0
2014-Jul-16 12:29N 40°45' E 013°53'0 0.0
2014-Jul-16 11:29N 40°45' E 013°53'0 0.0
2014-Jul-16 10:29N 40°45' E 013°53'0 0.1
2014-Jul-16 09:33N 40°45' E 013°53'4 4.4
2014-Jul-16 08:33N 40°48' E 013°49'1111.0
2014-Jul-16 07:33N 40°53' E 013°36'3012.8
2014-Jul-16 05:15N 41°08' E 013°02'12612.8
2014-Jul-15 19:25N 42°30' E 010°55'1112.9
2014-Jul-15 18:33N 42°39' E 010°45'1613.4
2014-Jul-15 17:24N 42°51' E 010°31'8 9.4
2014-Jul-15 16:33N 42°49' E 010°21'1 0.9
2014-Jul-15 15:32N 42°48' E 010°20'0 0.0
2014-Jul-15 14:29N 42°48' E 010°20'0 0.2
2014-Jul-15 13:33N 42°48' E 010°20'0 0.1
2014-Jul-15 06:24N 42°49' E 010°20'4 4.6
2014-Jul-15 05:33N 42°52' E 010°17'1111.1
2014-Jul-15 04:33N 43°01' E 010°08'7 7.3
2014-Jul-15 03:32N 43°08' E 010°03'1212.0
2014-Jul-15 02:33N 43°16' E 009°52'1211.9
2014-Jul-15 01:33N 43°26' E 009°42'1212.2
2014-Jul-15 00:33N 43°38' E 009°44'1212.3
2014-Jul-14 23:33N 43°49' E 009°49'1212.4
2014-Jul-14 22:33N 44°02' E 009°52'2 1.8
2014-Jul-14 21:33N 44°03' E 009°51'0 0.1
2014-Jul-14 20:33N 44°03' E 009°51'0 0.0
2014-Jul-14 19:33N 44°03' E 009°51'0 0.0
2014-Jul-14 18:33N 44°03' E 009°51'0 0.0
2014-Jul-14 17:33N 44°03' E 009°51'0 0.0
2014-Jul-14 16:33N 44°03' E 009°51'21 1.8
2014-Jul-14 05:09N 44°12' E 009°24'812.3
2014-Jul-14 04:33N 44°17' E 009°16'2 1.9
2014-Jul-14 03:25N 44°19' E 009°14'0 0.0
2014-Jul-14 02:04N 44°19' E 009°14'0 0.0
2014-Jul-14 01:31N 44°19' E 009°14'0 0.0
2014-Jul-13 22:31N 44°19' E 009°14'0 0.0
2014-Jul-13 21:28N 44°19' E 009°14'0 0.0
2014-Jul-13 20:07N 44°19' E 009°14'0 0.0
2014-Jul-13 19:31N 44°19' E 009°14'0 0.0
2014-Jul-13 18:28N 44°19' E 009°14'0 0.0
2014-Jul-13 17:22N 44°19' E 009°14'0 0.0
2014-Jul-13 16:25N 44°19' E 009°14'0 0.0
2014-Jul-13 15:25N 44°19' E 009°14'0 0.0
2014-Jul-13 12:22N 44°19' E 009°14'0 0.0
2014-Jul-13 11:19N 44°19' E 009°14'0 0.0
2014-Jul-13 10:19N 44°19' E 009°14'0 0.0
2014-Jul-13 09:31N 44°19' E 009°14'0 0.0
2014-Jul-13 07:28N 44°19' E 009°14'0 0.0
2014-Jul-13 06:16N 44°19' E 009°14'5 7.0
2014-Jul-13 05:33N 44°14' E 009°13'9 9.1
2014-Jul-13 04:33N 44°08' E 009°03'1111.3
2014-Jul-13 03:33N 44°07' E 008°47'1111.2
2014-Jul-13 02:33N 44°02' E 008°33'5510.9
2014-Jul-12 21:34N 43°42' E 007°22'1 0.9
2014-Jul-12 20:18N 43°42' E 007°21'0 0.1
2014-Jul-12 19:30N 43°43' E 007°21'0 0.0
2014-Jul-12 18:24N 43°43' E 007°21'0 0.0
2014-Jul-12 17:30N 43°43' E 007°21'0 0.0
2014-Jul-12 16:30N 43°43' E 007°21'0 0.0
2014-Jul-12 15:33N 43°43' E 007°21'0 0.0
2014-Jul-12 14:34N 43°43' E 007°21'0 0.0
2014-Jul-12 13:34N 43°43' E 007°21'0 0.0
2014-Jul-12 12:33N 43°43' E 007°21'0 0.0
2014-Jul-12 11:33N 43°43' E 007°21'0 0.0
2014-Jul-12 10:33N 43°43' E 007°21'0 0.0
2014-Jul-12 09:33N 43°43' E 007°21'0 0.0
2014-Jul-12 08:33N 43°43' E 007°21'0 0.0
2014-Jul-12 07:34N 43°43' E 007°21'1 1.0
2014-Jul-12 06:33N 43°42' E 007°21'  
Track history (hours):
 
Tides and Currents Weather Stations Pressure Air Temp Water Temp Dewpoint Dewpoint Depression Visibility Wind Speed Wind Dir Waves Ship Positions

Moonlight II

Last reported at 2014-Jul-22 06:31 UTC. Time now 2014-Jul-22 07:23 UTC.
Position N 40°45' E 013°53'.

Length 82 m; draft 4.1 m.

Type: Ship. MMSI: 215934000.

Date/timePositionNaut miles runAvg speedWind from/ knotsBaromVisibWave heightAir tempDewpointWater temp
2014-Jul-22 06:31N 40°45' E 013°53'0 0.0
2014-Jul-22 05:31N 40°45' E 013°53'0 0.0
2014-Jul-22 04:31N 40°45' E 013°53'0 0.0
2014-Jul-22 03:31N 40°45' E 013°53'0 0.0
2014-Jul-22 02:31N 40°45' E 013°53'0 0.0
2014-Jul-22 01:31N 40°45' E 013°53'0 0.0
2014-Jul-22 00:31N 40°45' E 013°53'0 0.0
2014-Jul-21 23:31N 40°45' E 013°53'0 0.0
2014-Jul-21 22:31N 40°45' E 013°53'0 0.0
2014-Jul-21 21:28N 40°45' E 013°53'0 0.0
2014-Jul-21 20:31N 40°45' E 013°53'0 0.0
2014-Jul-21 20:16N 40°45' E 013°53'0 0.0
2014-Jul-21 19:31N 40°45' E 013°53'0 0.0
2014-Jul-21 18:31N 40°45' E 013°53'0 0.0
2014-Jul-21 17:31N 40°45' E 013°53'0 0.0
2014-Jul-21 16:31N 40°45' E 013°53'0 0.0
2014-Jul-21 15:31N 40°45' E 013°53'0 0.0
2014-Jul-21 14:31N 40°45' E 013°53'0 0.0
2014-Jul-21 13:31N 40°45' E 013°53'0 0.0
2014-Jul-21 12:31N 40°45' E 013°53'2 2.1
2014-Jul-21 11:33N 40°46' E 013°56'1111.1
2014-Jul-21 10:33N 40°46' E 014°11'5 0.3
2014-Jul-20 18:25N 40°50' E 014°15'0 0.0
2014-Jul-20 17:31N 40°50' E 014°15'0 0.0
2014-Jul-20 16:28N 40°50' E 014°15'0 0.0
2014-Jul-20 15:28N 40°50' E 014°15'0 0.0
2014-Jul-20 14:31N 40°50' E 014°15'0 0.0
2014-Jul-20 13:31N 40°50' E 014°15'0 0.0
2014-Jul-20 12:28N 40°50' E 014°15'0 0.0
2014-Jul-20 11:28N 40°50' E 014°15'0 0.0
2014-Jul-20 07:04N 40°50' E 014°15'0 0.0
2014-Jul-19 18:31N 40°50' E 014°15'0 0.0
2014-Jul-19 12:16N 40°50' E 014°15'1 0.1
2014-Jul-19 06:06N 40°50' E 014°17'4 7.7
2014-Jul-19 05:33N 40°46' E 014°17'1212.2
2014-Jul-19 04:33N 40°34' E 014°19'2 0.2
2014-Jul-18 15:29N 40°34' E 014°22'3 3.6
2014-Jul-18 14:34N 40°36' E 014°18'10 9.5
2014-Jul-18 13:28N 40°44' E 014°27'0 0.0
2014-Jul-18 12:22N 40°44' E 014°27'0 0.0
2014-Jul-18 11:28N 40°44' E 014°27'0 0.0
2014-Jul-18 10:31N 40°44' E 014°27'0 0.0
2014-Jul-18 09:28N 40°44' E 014°27'0 0.0
2014-Jul-18 08:31N 40°44' E 014°27'0 0.1
2014-Jul-18 06:32N 40°44' E 014°27'1010.3
2014-Jul-18 05:33N 40°37' E 014°18'4 4.0
2014-Jul-18 04:31N 40°33' E 014°15'0 0.0
2014-Jul-18 03:31N 40°33' E 014°15'0 0.0
2014-Jul-18 02:31N 40°33' E 014°15'0 0.0
2014-Jul-18 01:31N 40°33' E 014°15'0 0.0
2014-Jul-18 00:31N 40°33' E 014°15'0 0.0
2014-Jul-17 23:31N 40°33' E 014°15'0 0.0
2014-Jul-17 22:31N 40°33' E 014°15'0 0.0
2014-Jul-17 21:31N 40°33' E 014°15'0 0.0
2014-Jul-17 20:31N 40°33' E 014°15'0 0.0
2014-Jul-17 19:31N 40°33' E 014°15'0 0.0
2014-Jul-17 18:31N 40°33' E 014°15'0 0.0
2014-Jul-17 17:33N 40°33' E 014°15'0 0.3
2014-Jul-17 16:31N 40°34' E 014°15'0 0.0
2014-Jul-17 15:28N 40°34' E 014°15'0 0.0
2014-Jul-17 14:28N 40°34' E 014°15'0 0.0
2014-Jul-17 13:28N 40°34' E 014°15'0 0.0
2014-Jul-17 12:31N 40°34' E 014°15'0 0.0
2014-Jul-17 11:13N 40°34' E 014°15'0 0.1
2014-Jul-17 10:19N 40°34' E 014°15'0 0.1
2014-Jul-17 09:31N 40°34' E 014°15'0 0.0
2014-Jul-17 08:31N 40°34' E 014°15'0 0.0
2014-Jul-17 07:28N 40°34' E 014°15'0 0.0
2014-Jul-17 06:28N 40°34' E 014°15'0 0.0
2014-Jul-17 05:22N 40°34' E 014°15'0 0.4
2014-Jul-17 04:33N 40°33' E 014°15'0 0.0
2014-Jul-17 03:34N 40°33' E 014°15'0 0.0
2014-Jul-17 02:34N 40°33' E 014°15'0 0.0
2014-Jul-17 01:33N 40°33' E 014°15'0 0.0
2014-Jul-17 00:33N 40°33' E 014°15'0 0.0
2014-Jul-16 23:34N 40°33' E 014°15'0 0.0
2014-Jul-16 22:33N 40°33' E 014°15'0 0.0
2014-Jul-16 21:34N 40°33' E 014°15'0 0.0
2014-Jul-16 20:34N 40°33' E 014°15'0 0.0
2014-Jul-16 19:33N 40°33' E 014°15'0 0.0
2014-Jul-16 18:34N 40°33' E 014°15'0 0.0
2014-Jul-16 17:33N 40°33' E 014°15'5 5.0
2014-Jul-16 16:33N 40°37' E 014°10'1313.0
2014-Jul-16 15:34N 40°45' E 013°57'3 2.6
2014-Jul-16 14:32N 40°45' E 013°53'0 0.0
2014-Jul-16 13:32N 40°45' E 013°53'0 0.0
2014-Jul-16 12:29N 40°45' E 013°53'0 0.0
2014-Jul-16 11:29N 40°45' E 013°53'0 0.0
2014-Jul-16 10:29N 40°45' E 013°53'0 0.1
2014-Jul-16 09:33N 40°45' E 013°53'4 4.4
2014-Jul-16 08:33N 40°48' E 013°49'1111.0
2014-Jul-16 07:33N 40°53' E 013°36'3012.8
2014-Jul-16 05:15N 41°08' E 013°02'12612.8
2014-Jul-15 19:25N 42°30' E 010°55'1112.9
2014-Jul-15 18:33N 42°39' E 010°45'1613.4
2014-Jul-15 17:24N 42°51' E 010°31'8 9.4
2014-Jul-15 16:33N 42°49' E 010°21'1 0.9
2014-Jul-15 15:32N 42°48' E 010°20'0 0.0
2014-Jul-15 14:29N 42°48' E 010°20'0 0.2
2014-Jul-15 13:33N 42°48' E 010°20'0 0.1
2014-Jul-15 06:24N 42°49' E 010°20'4 4.6
2014-Jul-15 05:33N 42°52' E 010°17'1111.1
2014-Jul-15 04:33N 43°01' E 010°08'7 7.3
2014-Jul-15 03:32N 43°08' E 010°03'1212.0
2014-Jul-15 02:33N 43°16' E 009°52'1211.9
2014-Jul-15 01:33N 43°26' E 009°42'1212.2
2014-Jul-15 00:33N 43°38' E 009°44'1212.3
2014-Jul-14 23:33N 43°49' E 009°49'1212.4
2014-Jul-14 22:33N 44°02' E 009°52'2 1.8
2014-Jul-14 21:33N 44°03' E 009°51'0 0.1
2014-Jul-14 20:33N 44°03' E 009°51'0 0.0
2014-Jul-14 19:33N 44°03' E 009°51'0 0.0
2014-Jul-14 18:33N 44°03' E 009°51'0 0.0
2014-Jul-14 17:33N 44°03' E 009°51'0 0.0
2014-Jul-14 16:33N 44°03' E 009°51'21 1.8
2014-Jul-14 05:09N 44°12' E 009°24'812.3
2014-Jul-14 04:33N 44°17' E 009°16'2 1.9
2014-Jul-14 03:25N 44°19' E 009°14'0 0.0
2014-Jul-14 02:04N 44°19' E 009°14'0 0.0
2014-Jul-14 01:31N 44°19' E 009°14'0 0.0
2014-Jul-13 22:31N 44°19' E 009°14'0 0.0
2014-Jul-13 21:28N 44°19' E 009°14'0 0.0
2014-Jul-13 20:07N 44°19' E 009°14'0 0.0
2014-Jul-13 19:31N 44°19' E 009°14'0 0.0
2014-Jul-13 18:28N 44°19' E 009°14'0 0.0
2014-Jul-13 17:22N 44°19' E 009°14'0 0.0
2014-Jul-13 16:25N 44°19' E 009°14'0 0.0
2014-Jul-13 15:25N 44°19' E 009°14'0 0.0
2014-Jul-13 12:22N 44°19' E 009°14'0 0.0
2014-Jul-13 11:19N 44°19' E 009°14'0 0.0
2014-Jul-13 10:19N 44°19' E 009°14'0 0.0
2014-Jul-13 09:31N 44°19' E 009°14'0 0.0
2014-Jul-13 07:28N 44°19' E 009°14'0 0.0
2014-Jul-13 06:16N 44°19' E 009°14'5 7.0
2014-Jul-13 05:33N 44°14' E 009°13'9 9.1
2014-Jul-13 04:33N 44°08' E 009°03'1111.3
2014-Jul-13 03:33N 44°07' E 008°47'1111.2
2014-Jul-13 02:33N 44°02' E 008°33'5510.9
2014-Jul-12 21:34N 43°42' E 007°22'1 0.9
2014-Jul-12 20:18N 43°42' E 007°21'0 0.1
2014-Jul-12 19:30N 43°43' E 007°21'0 0.0
2014-Jul-12 18:24N 43°43' E 007°21'0 0.0
2014-Jul-12 17:30N 43°43' E 007°21'0 0.0
2014-Jul-12 16:30N 43°43' E 007°21'0 0.0
2014-Jul-12 15:33N 43°43' E 007°21'0 0.0
2014-Jul-12 14:34N 43°43' E 007°21'0 0.0
2014-Jul-12 13:34N 43°43' E 007°21'0 0.0
2014-Jul-12 12:33N 43°43' E 007°21'0 0.0
2014-Jul-12 11:33N 43°43' E 007°21'0 0.0
2014-Jul-12 10:33N 43°43' E 007°21'0 0.0
2014-Jul-12 09:33N 43°43' E 007°21'0 0.0
2014-Jul-12 08:33N 43°43' E 007°21'0 0.0
2014-Jul-12 07:34N 43°43' E 007°21'1 1.0
2014-Jul-12 06:33N 43°42' E 007°21'  

Dump ship's entire track history